Time;durP1;ratioP1;P1;durP2;ratioP2;P2;SDS_P1;SDS_P2;PMS_P1;PMS_P2;Temp;Humidity;BMP_temperature;BMP_pressure;BME280_temperature;BME280_humidity;BME280_pressure;Samples;Min_cycle;Max_cycle;Signal;HPM_P1;HPM_P2
2021/04/03 00:00:30;;;;;;;17.75;9.18;;;;;;;12.02;72.17;101376.63;5051448;28;20049;-69
2021/04/03 00:02:59;;;;;;;17.35;10.70;;;;;;;12.06;72.14;101371.44;5051040;28;20522;-69
2021/04/03 00:05:28;;;;;;;21.38;11.63;;;;;;;12.11;72.17;101380.34;5050477;28;20037;-69
2021/04/03 00:07:56;;;;;;;15.38;9.77;;;;;;;12.10;71.89;101380.31;5050276;28;20033;-69
2021/04/03 00:10:26;;;;;;;19.85;9.45;;;;;;;12.06;71.44;101381.13;5049169;28;20147;-69
2021/04/03 00:12:53;;;;;;;17.20;8.60;;;;;;;11.90;71.63;101382.56;5032712;28;20045;-70
2021/04/03 00:15:21;;;;;;;15.65;7.60;;;;;;;11.79;71.80;101382.38;5048915;28;20481;-69
2021/04/03 00:17:48;;;;;;;15.68;7.80;;;;;;;11.59;71.57;101384.56;5050071;28;20049;-69
2021/04/03 00:20:20;;;;;;;17.98;8.43;;;;;;;11.49;71.64;101386.94;5049868;28;20033;-69
2021/04/03 00:22:48;;;;;;;15.38;8.27;;;;;;;11.52;71.65;101387.03;5050663;28;20044;-69
2021/04/03 00:25:17;;;;;;;21.95;11.20;;;;;;;11.56;71.54;101396.81;5049533;28;20059;-68
2021/04/03 00:27:45;;;;;;;15.45;8.77;;;;;;;11.57;71.12;101391.56;5050891;28;20033;-69
2021/04/03 00:30:18;;;;;;;14.65;6.38;;;;;;;11.39;69.70;101393.81;5050606;28;20106;-69
2021/04/03 00:32:46;;;;;;;13.15;6.95;;;;;;;11.21;69.05;101395.16;5050511;28;20496;-69
2021/04/03 00:35:14;;;;;;;11.85;6.78;;;;;;;11.16;69.24;101389.72;5044673;28;20090;-69
2021/04/03 00:37:42;;;;;;;10.40;6.32;;;;;;;11.11;68.64;101391.38;5050927;28;20040;-69
2021/04/03 00:40:13;;;;;;;12.45;5.85;;;;;;;11.02;68.40;101388.53;5050292;28;20542;-69
2021/04/03 00:42:41;;;;;;;18.45;8.05;;;;;;;11.02;69.63;101389.44;5050072;28;20039;-69
2021/04/03 00:45:09;;;;;;;20.13;9.75;;;;;;;11.27;70.46;101384.72;5050734;28;20040;-69
2021/04/03 00:47:35;;;;;;;14.70;8.35;;;;;;;11.32;70.49;101378.66;5049479;28;20684;-69
2021/04/03 00:50:04;;;;;;;14.60;6.90;;;;;;;11.36;70.56;101385.78;5049721;28;20059;-69
2021/04/03 00:52:31;;;;;;;11.80;7.00;;;;;;;11.44;70.68;101386.84;5049619;28;20120;-69
2021/04/03 00:54:59;;;;;;;13.00;7.45;;;;;;;11.49;70.86;101381.66;5050637;28;20149;-69
2021/04/03 00:57:26;;;;;;;14.93;7.57;;;;;;;11.28;70.05;101387.41;5050258;28;20047;-69
2021/04/03 00:59:53;;;;;;;25.85;14.63;;;;;;;11.16;70.12;101382.69;5048263;28;20120;-68
2021/04/03 01:02:20;;;;;;;21.77;14.18;;;;;;;11.23;70.58;101383.72;5042015;28;20037;-69
2021/04/03 01:04:47;;;;;;;16.55;10.55;;;;;;;11.25;70.56;101376.75;5050130;28;20098;-68
2021/04/03 01:07:14;;;;;;;15.70;8.15;;;;;;;11.32;70.90;101381.31;5048599;28;20037;-69
2021/04/03 01:09:43;;;;;;;15.18;8.45;;;;;;;11.43;71.05;101387.72;5049601;28;20033;-69
2021/04/03 01:12:26;;;;;;;14.75;10.77;;;;;;;11.39;71.07;101375.31;5050098;28;20049;-68
2021/04/03 01:15:03;;;;;;;11.88;7.97;;;;;;;11.24;70.75;101376.69;5049081;28;20068;-70
2021/04/03 01:17:39;;;;;;;10.95;7.18;;;;;;;11.12;70.78;101372.94;5050173;28;20033;-69
2021/04/03 01:20:16;;;;;;;10.60;5.75;;;;;;;11.01;69.93;101371.78;5050282;28;20072;-69
2021/04/03 01:23:06;;;;;;;18.58;13.93;;;;;;;10.94;69.71;101371.59;5049114;28;20053;-69
2021/04/03 01:25:45;;;;;;;21.08;14.57;;;;;;;10.95;70.07;101378.69;5042241;28;20443;-70
2021/04/03 01:28:40;;;;;;;12.43;7.82;;;;;;;10.85;69.79;101380.19;5050126;28;20052;-69
2021/04/03 01:31:09;;;;;;;14.80;9.52;;;;;;;10.75;69.74;101375.56;5049503;28;20040;-68
2021/04/03 01:33:42;;;;;;;14.98;12.00;;;;;;;10.70;69.95;101382.44;5053821;28;20120;-69
2021/04/03 01:36:15;;;;;;;20.25;13.60;;;;;;;10.78;70.35;101378.25;5046947;28;20037;-69
2021/04/03 01:38:46;;;;;;;48.53;29.35;;;;;;;10.79;70.39;101377.41;5050652;28;20044;-69
2021/04/03 01:41:16;;;;;;;49.33;30.48;;;;;;;10.79;70.13;101380.94;5052341;28;20479;-69
2021/04/03 01:43:47;;;;;;;34.30;22.00;;;;;;;10.83;70.34;101370.47;5053098;28;20086;-69
2021/04/03 01:46:16;;;;;;;19.70;12.73;;;;;;;10.89;70.54;101368.88;5053054;28;20040;-69
2021/04/03 01:48:45;;;;;;;23.67;14.02;;;;;;;10.83;70.50;101366.06;5053622;28;20135;-69
2021/04/03 01:51:12;;;;;;;19.63;11.57;;;;;;;10.72;70.36;101370.19;5052317;28;20037;-70
2021/04/03 01:53:41;;;;;;;27.77;16.85;;;;;;;10.73;70.46;101371.97;5052785;28;20092;-70
2021/04/03 01:56:10;;;;;;;27.13;16.23;;;;;;;10.75;70.44;101363.25;5053138;28;20059;-69
2021/04/03 01:58:38;;;;;;;26.17;13.32;;;;;;;10.69;70.84;101362.22;5053560;28;20033;-69
2021/04/03 02:01:06;;;;;;;23.10;12.77;;;;;;;10.73;70.71;101362.31;5052673;28;20519;-69
2021/04/03 02:03:35;;;;;;;17.35;10.27;;;;;;;10.70;71.04;101359.59;5052982;28;20067;-69
2021/04/03 02:06:02;;;;;;;16.95;8.98;;;;;;;10.70;71.24;101356.94;5044849;28;20037;-69
2021/04/03 02:08:30;;;;;;;13.07;7.53;;;;;;;10.76;71.92;101358.88;5033898;28;20041;-70
2021/04/03 02:11:02;;;;;;;19.15;9.20;;;;;;;10.78;71.58;101357.13;5052529;28;20045;-69
2021/04/03 02:13:32;;;;;;;12.02;7.53;;;;;;;10.75;71.22;101349.16;5052405;28;20142;-70
2021/04/03 02:16:01;;;;;;;17.55;9.18;;;;;;;10.73;71.78;101353.50;5053693;28;20392;-70
2021/04/03 02:18:30;;;;;;;17.67;8.45;;;;;;;10.81;72.05;101345.75;5053169;28;20041;-69
2021/04/03 02:21:03;;;;;;;18.10;7.50;;;;;;;10.79;73.02;101343.97;5051314;28;20040;-69
2021/04/03 02:23:31;;;;;;;16.87;7.47;;;;;;;10.95;73.66;101350.53;5052315;28;20447;-69
2021/04/03 02:25:59;;;;;;;14.25;7.30;;;;;;;11.07;73.85;101339.34;5052818;28;20282;-70
2021/04/03 02:28:26;;;;;;;18.45;8.20;;;;;;;11.12;74.33;101337.69;5052886;28;20091;-69
2021/04/03 02:30:54;;;;;;;13.10;6.82;;;;;;;11.17;74.71;101342.22;5052889;28;20503;-69
2021/04/03 02:33:21;;;;;;;12.00;7.43;;;;;;;11.23;75.06;101338.81;5053367;28;20037;-69
2021/04/03 02:35:49;;;;;;;15.63;7.75;;;;;;;11.28;75.42;101347.75;5050474;28;20044;-70
2021/04/03 02:38:17;;;;;;;15.38;7.60;;;;;;;11.35;75.87;101341.75;5050861;28;20508;-70
2021/04/03 02:40:45;;;;;;;15.48;7.80;;;;;;;11.41;75.95;101338.34;5052718;28;20056;-69
2021/04/03 02:43:20;;;;;;;12.38;7.70;;;;;;;11.49;76.43;101332.31;5052192;28;20469;-70
2021/04/03 02:45:52;;;;;;;19.60;9.38;;;;;;;11.53;76.50;101325.38;5051821;28;20143;-70
2021/04/03 02:48:22;;;;;;;13.40;8.32;;;;;;;11.56;76.66;101336.88;5049881;28;20475;-69
2021/04/03 02:50:52;;;;;;;21.08;8.70;;;;;;;11.58;76.95;101332.53;5052365;28;20083;-70
2021/04/03 02:53:27;;;;;;;17.30;7.60;;;;;;;11.66;76.88;101335.34;5052041;28;20091;-70
2021/04/03 02:55:56;;;;;;;15.85;7.85;;;;;;;11.67;77.31;101329.19;5052907;28;20155;-69
2021/04/03 02:58:25;;;;;;;17.08;8.70;;;;;;;11.69;77.03;101330.09;5034532;28;20539;-69
2021/04/03 03:00:54;;;;;;;18.70;9.02;;;;;;;11.67;77.18;101329.19;5034393;28;20053;-70
2021/04/03 03:03:22;;;;;;;14.38;7.45;;;;;;;11.70;77.45;101330.97;5045484;28;20036;-70
2021/04/03 03:05:51;;;;;;;19.10;8.75;;;;;;;11.70;77.54;101323.94;5052184;28;20044;-71
2021/04/03 03:08:19;;;;;;;13.45;7.20;;;;;;;11.69;77.41;101327.44;5052102;28;20040;-70
2021/04/03 03:10:50;;;;;;;16.77;7.30;;;;;;;11.76;77.42;101324.09;5049266;28;20045;-70
2021/04/03 03:13:18;;;;;;;14.27;7.35;;;;;;;11.77;77.35;101314.41;5050522;28;20703;-69
2021/04/03 03:15:45;;;;;;;18.13;8.55;;;;;;;11.74;77.23;101325.84;5052426;28;20033;-69
2021/04/03 03:18:14;;;;;;;20.58;8.07;;;;;;;11.70;77.35;101328.34;5052274;28;20033;-69
2021/04/03 03:20:41;;;;;;;15.15;7.38;;;;;;;11.69;77.24;101314.22;5050972;28;20045;-69
2021/04/03 03:23:11;;;;;;;14.75;7.55;;;;;;;11.72;77.25;101324.88;5049831;28;20037;-68
2021/04/03 03:25:38;;;;;;;12.90;7.88;;;;;;;11.74;77.06;101320.56;5050994;28;20041;-70
2021/04/03 03:28:07;;;;;;;14.50;7.93;;;;;;;11.75;77.04;101324.94;5052088;28;20033;-70
2021/04/03 03:30:35;;;;;;;19.77;8.13;;;;;;;11.76;77.13;101324.09;5051379;28;20511;-69
2021/04/03 03:33:02;;;;;;;17.35;7.63;;;;;;;11.76;77.02;101332.03;5048918;28;20041;-70
2021/04/03 03:35:29;;;;;;;18.10;7.20;;;;;;;11.75;76.96;101332.88;5050974;28;20403;-70
2021/04/03 03:37:57;;;;;;;15.93;8.05;;;;;;;11.78;76.96;101338.25;5051316;28;20467;-70
2021/04/03 03:40:26;;;;;;;14.70;8.20;;;;;;;11.78;76.98;101326.78;5050321;28;20034;-69
2021/04/03 03:42:54;;;;;;;17.20;7.65;;;;;;;11.79;77.14;101329.47;5050951;28;20428;-70
2021/04/03 03:45:22;;;;;;;13.20;6.55;;;;;;;11.82;77.01;101329.50;5050783;28;20350;-69
2021/04/03 03:47:49;;;;;;;14.57;8.05;;;;;;;11.84;76.98;101326.91;5050989;28;20453;-70
2021/04/03 03:50:17;;;;;;;13.73;7.45;;;;;;;11.86;77.08;101330.47;5049297;28;20059;-69
2021/04/03 03:52:44;;;;;;;13.60;7.32;;;;;;;11.88;77.21;101340.22;5050118;28;20129;-70
2021/04/03 03:55:12;;;;;;;14.25;7.07;;;;;;;11.89;77.30;101344.63;5049530;28;20505;-71
2021/04/03 03:57:39;;;;;;;15.10;8.02;;;;;;;11.90;77.17;101341.13;5049993;28;20041;-71
2021/04/03 04:00:07;;;;;;;14.98;7.15;;;;;;;11.87;77.11;101345.50;5049803;28;20033;-71
2021/04/03 04:02:36;;;;;;;19.17;8.32;;;;;;;11.89;77.29;101342.00;5050187;28;20037;-70
2021/04/03 04:05:03;;;;;;;16.63;7.40;;;;;;;11.93;77.17;101337.66;5048620;28;20484;-70
2021/04/03 04:07:35;;;;;;;15.20;7.35;;;;;;;11.97;77.15;101342.16;5050546;28;20064;-70
2021/04/03 04:10:04;;;;;;;13.50;6.95;;;;;;;11.97;77.20;101345.69;5050992;28;20036;-70
2021/04/03 04:12:31;;;;;;;15.20;8.15;;;;;;;12.01;77.08;101351.06;5050977;28;20045;-70
2021/04/03 04:14:58;;;;;;;14.15;6.95;;;;;;;12.08;77.18;101342.38;5050769;28;20033;-70
2021/04/03 04:17:25;;;;;;;17.65;7.70;;;;;;;12.15;76.96;101339.84;5045963;28;20041;-70
2021/04/03 04:19:53;;;;;;;14.48;6.75;;;;;;;12.25;76.73;101340.91;5050530;28;20041;-70
2021/04/03 04:22:21;;;;;;;11.88;6.18;;;;;;;12.39;76.45;101344.69;5050092;28;20029;-70
2021/04/03 04:24:47;;;;;;;10.77;6.18;;;;;;;12.51;75.91;101338.72;5059056;28;20037;-70
2021/04/03 04:27:15;;;;;;;14.02;6.03;;;;;;;12.61;75.33;101338.88;5041724;28;20489;-70
2021/04/03 04:29:42;;;;;;;12.05;5.18;;;;;;;12.73;74.92;101347.03;5050772;28;20400;-71
2021/04/03 04:32:09;;;;;;;11.73;6.10;;;;;;;12.86;74.53;101342.84;5046679;28;20101;-70
2021/04/03 04:34:36;;;;;;;12.35;5.60;;;;;;;12.94;74.00;101346.47;5050416;28;20061;-71
2021/04/03 04:37:05;;;;;;;11.95;4.82;;;;;;;13.09;73.75;101340.53;5050098;28;20041;-70
2021/04/03 04:39:32;;;;;;;14.75;5.60;;;;;;;13.23;73.10;101346.94;5030429;28;20041;-70
2021/04/03 04:41:59;;;;;;;8.38;4.40;;;;;;;13.37;72.66;101347.16;5041574;28;20053;-71
2021/04/03 04:44:26;;;;;;;10.77;6.43;;;;;;;13.47;72.41;101339.31;5050488;28;20033;-71
2021/04/03 04:46:53;;;;;;;11.07;5.50;;;;;;;13.61;72.00;101344.81;5048944;28;20029;-70
2021/04/03 04:49:20;;;;;;;9.73;5.07;;;;;;;13.75;71.63;101345.88;5049629;28;20063;-70
2021/04/03 04:51:47;;;;;;;13.00;5.55;;;;;;;13.87;71.42;101340.69;5050290;28;20128;-71
2021/04/03 04:54:15;;;;;;;12.88;5.47;;;;;;;14.01;71.41;101353.22;5050315;28;20039;-71
2021/04/03 04:57:11;;;;;;;10.23;4.93;;;;;;;14.17;70.91;101356.09;5050244;28;20072;-71
2021/04/03 04:59:38;;;;;;;9.10;4.72;;;;;;;14.27;70.52;101349.09;5050586;28;20230;-71
2021/04/03 05:02:05;;;;;;;8.38;5.18;;;;;;;14.39;70.62;101343.91;5049290;28;20052;-70
2021/04/03 05:04:32;;;;;;;7.57;4.38;;;;;;;14.54;70.21;101346.72;5050162;28;20037;-71
2021/04/03 05:06:59;;;;;;;8.48;4.75;;;;;;;14.64;69.95;101353.88;5050037;28;20041;-71
2021/04/03 05:09:27;;;;;;;11.07;5.88;;;;;;;14.77;69.26;101350.44;5053951;28;20114;-71
2021/04/03 05:11:54;;;;;;;11.50;5.40;;;;;;;14.91;68.80;101354.97;5054447;28;20051;-71
2021/04/03 05:14:21;;;;;;;11.25;5.28;;;;;;;15.08;68.17;101351.59;5054158;28;20044;-71
2021/04/03 05:16:48;;;;;;;11.10;5.20;;;;;;;15.23;68.09;101360.53;5041501;28;20038;-71
2021/04/03 05:19:15;;;;;;;10.13;5.18;;;;;;;15.36;67.64;101357.06;5048728;28;20061;-71
2021/04/03 05:21:42;;;;;;;11.80;5.45;;;;;;;15.50;67.45;101355.34;5053724;28;20033;-71
2021/04/03 05:24:09;;;;;;;12.77;5.28;;;;;;;15.63;67.05;101346.56;5052948;28;20759;-71
2021/04/03 05:26:37;;;;;;;10.70;4.97;;;;;;;15.79;66.91;101355.53;5052898;28;20132;-71
2021/04/03 05:29:04;;;;;;;9.27;4.18;;;;;;;15.87;66.14;101367.09;5049133;28;20045;-69
2021/04/03 05:31:31;;;;;;;13.95;5.22;;;;;;;15.94;65.31;101361.81;5033380;28;20033;-69
2021/04/03 05:33:58;;;;;;;12.88;5.03;;;;;;;16.09;64.83;101368.94;5050030;28;20054;-69
2021/04/03 05:36:25;;;;;;;11.25;5.15;;;;;;;16.22;64.22;101370.72;5047394;28;20124;-69
2021/04/03 05:38:53;;;;;;;11.13;5.15;;;;;;;16.35;64.01;101375.22;5052102;28;20052;-68
2021/04/03 05:41:20;;;;;;;10.75;5.10;;;;;;;16.45;63.42;101369.91;5053253;28;20116;-69
2021/04/03 05:43:51;;;;;;;10.30;5.40;;;;;;;16.52;62.83;101375.25;5050690;28;20037;-69
2021/04/03 05:46:20;;;;;;;12.05;5.22;;;;;;;16.67;62.72;101374.41;5047950;28;20041;-69
2021/04/03 05:48:47;;;;;;;9.63;5.25;;;;;;;16.81;62.53;101374.38;5052596;28;20128;-69
2021/04/03 05:51:16;;;;;;;11.30;5.40;;;;;;;16.92;62.00;101383.28;5051263;28;20045;-68
2021/04/03 05:53:43;;;;;;;12.07;5.97;;;;;;;17.02;61.50;101380.59;5053576;28;20047;-69
2021/04/03 05:56:10;;;;;;;13.15;5.57;;;;;;;17.21;61.64;101372.56;5047240;28;20496;-69
2021/04/03 05:58:37;;;;;;;9.80;6.18;;;;;;;17.29;60.47;101377.00;5050276;28;20404;-69
2021/04/03 06:01:07;;;;;;;10.50;5.53;;;;;;;17.40;60.58;101393.88;5052061;28;20048;-68
2021/04/03 06:03:35;;;;;;;13.52;6.57;;;;;;;17.57;60.47;101395.63;5047474;28;20033;-69
2021/04/03 06:06:02;;;;;;;19.00;8.60;;;;;;;17.68;60.01;101399.19;5039274;28;20526;-69
2021/04/03 06:08:31;;;;;;;26.63;13.90;;;;;;;17.90;60.17;101390.22;5040192;28;20040;-69
2021/04/03 06:11:17;;;;;;;30.13;17.02;;;;;;;18.12;59.47;101389.19;5044067;28;20045;-70
2021/04/03 06:14:03;;;;;;;35.20;20.45;;;;;;;18.23;59.32;101392.72;5040281;28;20037;-71
2021/04/03 06:16:32;;;;;;;21.35;12.65;;;;;;;18.41;58.82;101390.81;5033474;28;20129;-71
2021/04/03 06:19:10;;;;;;;15.45;8.45;;;;;;;18.56;58.16;101396.09;5045269;28;20049;-72
2021/04/03 06:21:37;;;;;;;14.70;8.40;;;;;;;18.64;57.49;101395.13;5040781;28;20061;-71
2021/04/03 06:24:04;;;;;;;15.10;7.65;;;;;;;18.73;57.28;101390.63;5039666;28;20033;-71
2021/04/03 06:26:31;;;;;;;14.50;7.40;;;;;;;18.85;56.44;101401.22;5048256;28;20039;-71
2021/04/03 06:29:22;;;;;;;15.30;7.85;;;;;;;18.99;55.75;101393.97;5053109;28;20040;-71
2021/04/03 06:31:53;;;;;;;13.85;6.75;;;;;;;19.11;55.70;101389.38;5048456;28;20045;-71
2021/04/03 06:34:34;;;;;;;16.02;7.40;;;;;;;19.18;54.85;101387.53;5044715;28;20057;-71
2021/04/03 06:37:02;;;;;;;13.05;6.30;;;;;;;19.35;54.87;101400.78;5052495;28;20040;-71
2021/04/03 06:39:29;;;;;;;11.32;5.78;;;;;;;19.46;54.76;101401.56;5052147;28;20060;-71
2021/04/03 06:41:57;;;;;;;11.40;6.75;;;;;;;19.53;54.60;101397.94;5040671;28;20501;-71
2021/04/03 06:44:25;;;;;;;15.73;8.00;;;;;;;19.59;54.18;101402.31;5034034;28;20042;-71
2021/04/03 06:46:54;;;;;;;15.65;7.13;;;;;;;19.63;54.09;101417.44;5042939;28;20114;-69
2021/04/03 06:49:22;;;;;;;23.48;14.75;;;;;;;19.81;54.08;101417.28;5052118;28;20056;-69
2021/04/03 06:51:50;;;;;;;15.88;10.70;;;;;;;19.89;53.63;101420.72;5048297;28;20436;-69
2021/04/03 06:54:19;;;;;;;21.85;14.20;;;;;;;19.98;53.55;101425.09;5052688;28;20033;-69
2021/04/03 06:56:47;;;;;;;20.25;11.65;;;;;;;20.02;53.56;101422.34;5049486;28;20030;-69
2021/04/03 06:59:14;;;;;;;18.48;10.85;;;;;;;19.99;53.63;101427.75;5046958;28;20548;-69
2021/04/03 07:01:51;;;;;;;26.73;12.73;;;;;;;20.11;53.46;101430.28;5052550;28;20033;-68
2021/04/03 07:04:28;;;;;;;16.23;7.43;;;;;;;20.23;53.47;101431.91;5051570;28;20501;-68
2021/04/03 07:06:56;;;;;;;18.38;9.75;;;;;;;20.36;53.39;101433.53;5057116;28;20134;-68
2021/04/03 07:09:24;;;;;;;11.90;6.13;;;;;;;20.53;53.67;101431.53;5055353;28;20072;-68
2021/04/03 07:11:54;;;;;;;13.73;8.52;;;;;;;20.72;52.99;101426.78;5050980;28;20037;-68
2021/04/03 07:14:22;;;;;;;15.60;7.45;;;;;;;20.76;52.83;101436.53;5052063;28;20120;-69
2021/04/03 07:16:51;;;;;;;16.77;7.53;;;;;;;20.81;52.60;101436.44;5052511;28;20436;-69
2021/04/03 07:19:21;;;;;;;16.67;8.98;;;;;;;20.86;52.59;101439.97;5046933;28;20040;-68
2021/04/03 07:21:49;;;;;;;17.00;8.20;;;;;;;20.81;52.41;101431.09;5041841;28;20126;-71
2021/04/03 07:24:19;;;;;;;13.98;7.53;;;;;;;20.70;52.61;101447.38;5031392;28;20037;-70
2021/04/03 07:26:49;;;;;;;15.75;9.20;;;;;;;20.72;52.78;101445.56;5038284;28;20046;-70
2021/04/03 07:29:45;;;;;;;16.65;10.30;;;;;;;20.86;52.76;101435.50;5035484;28;20041;-71
2021/04/03 07:32:30;;;;;;;11.77;5.82;;;;;;;21.05;52.94;101445.03;5030864;28;20042;-70
2021/04/03 07:34:57;;;;;;;13.20;8.27;;;;;;;21.05;52.44;101446.81;5034315;28;20056;-71
2021/04/03 07:37:35;;;;;;;16.42;8.90;;;;;;;21.10;52.35;101439.56;5031668;28;20041;-70
2021/04/03 07:40:03;;;;;;;14.90;6.95;;;;;;;21.13;51.95;101447.59;5035745;28;20044;-71
2021/04/03 07:42:38;;;;;;;10.95;5.97;;;;;;;21.15;51.90;101447.53;5031917;28;20152;-70
2021/04/03 07:45:27;;;;;;;12.70;6.03;;;;;;;21.20;51.55;101449.25;5031858;28;20052;-71
2021/04/03 07:47:54;;;;;;;9.63;4.28;;;;;;;21.25;51.25;101449.22;5033962;28;20116;-71
2021/04/03 07:50:50;;;;;;;12.95;5.53;;;;;;;21.29;50.39;101451.78;5046825;28;20073;-70
2021/04/03 07:53:36;;;;;;;8.02;4.55;;;;;;;21.44;50.08;101447.97;5034429;28;20792;-70
2021/04/03 07:56:04;;;;;;;10.75;4.80;;;;;;;21.46;50.26;101443.47;5051104;28;20383;-71
2021/04/03 07:58:32;;;;;;;7.90;4.63;;;;;;;21.57;50.34;101456.69;5045448;28;20072;-70
2021/04/03 08:01:00;;;;;;;10.63;4.50;;;;;;;21.57;50.47;101454.00;5051172;28;20049;-70
2021/04/03 08:03:29;;;;;;;9.40;5.00;;;;;;;21.70;51.13;101453.75;5050517;28;20065;-71
2021/04/03 08:06:04;;;;;;;12.52;5.18;;;;;;;21.90;51.17;101453.34;5050521;28;20043;-71
2021/04/03 08:08:34;;;;;;;10.68;5.65;;;;;;;21.86;51.01;101449.81;5042403;28;20040;-71
2021/04/03 08:11:11;;;;;;;17.23;8.93;;;;;;;22.02;51.29;101458.50;5050544;28;20147;-71
2021/04/03 08:13:40;;;;;;;19.98;10.40;;;;;;;22.11;50.98;101452.97;5045440;28;20045;-71
2021/04/03 08:16:09;;;;;;;32.70;17.75;;;;;;;22.12;50.80;101456.53;5030154;28;20041;-71
2021/04/03 08:18:39;;;;;;;14.63;7.65;;;;;;;22.25;50.75;101453.53;5030313;28;20052;-71
2021/04/03 08:21:07;;;;;;;13.82;8.27;;;;;;;22.27;50.00;101461.56;5049025;28;20032;-71
2021/04/03 08:23:36;;;;;;;14.57;7.13;;;;;;;22.16;50.04;101447.47;5050928;28;20045;-72
2021/04/03 08:26:04;;;;;;;12.55;7.07;;;;;;;22.28;50.01;101441.81;5051212;28;20099;-71
2021/04/03 08:28:32;;;;;;;17.88;8.15;;;;;;;22.20;50.07;101458.13;5050956;28;20476;-71
2021/04/03 08:31:12;;;;;;;14.10;7.05;;;;;;;22.13;49.59;101463.66;5050818;28;20118;-72
2021/04/03 08:33:38;;;;;;;16.40;9.57;;;;;;;22.05;49.70;101466.53;5051161;28;20041;-71
2021/04/03 08:36:12;;;;;;;22.48;13.77;;;;;;;22.14;50.40;101455.56;5047322;28;20045;-70
2021/04/03 08:38:40;;;;;;;16.77;8.27;;;;;;;22.25;50.18;101455.34;5051007;28;20554;-71
2021/04/03 08:41:07;;;;;;;16.88;7.45;;;;;;;22.23;49.81;101455.38;5050707;28;20761;-71
2021/04/03 08:43:36;;;;;;;20.20;13.07;;;;;;;22.21;50.24;101457.22;5044355;28;20508;-72
2021/04/03 08:46:08;;;;;;;20.50;9.40;;;;;;;22.33;50.01;101463.22;5033128;28;20030;-71
2021/04/03 08:48:38;;;;;;;18.60;7.80;;;;;;;22.43;49.70;101457.63;5041743;28;20081;-71
2021/04/03 08:51:07;;;;;;;17.17;9.07;;;;;;;22.57;50.10;101450.16;5040597;28;20052;-71
2021/04/03 08:53:43;;;;;;;22.35;12.95;;;;;;;22.45;49.31;101444.16;5036145;28;20655;-71
2021/04/03 08:56:11;;;;;;;12.65;5.35;;;;;;;22.38;49.65;101445.22;5030857;28;20618;-71
2021/04/03 08:58:40;;;;;;;21.00;12.77;;;;;;;22.37;49.80;101446.13;5031308;28;20033;-72
2021/04/03 09:01:07;;;;;;;15.00;8.88;;;;;;;22.44;49.71;101458.53;5031808;28;20444;-71
2021/04/03 09:03:35;;;;;;;13.48;5.97;;;;;;;22.58;49.50;101459.97;5030729;28;20042;-72
2021/04/03 09:06:04;;;;;;;17.38;6.68;;;;;;;22.65;49.53;101469.69;5036622;28;20754;-71
2021/04/03 09:08:30;;;;;;;17.13;9.90;;;;;;;22.67;48.98;101461.56;5050315;28;20435;-71
2021/04/03 09:10:59;;;;;;;30.95;17.95;;;;;;;22.55;49.01;101465.44;5050859;28;20076;-72
2021/04/03 09:13:32;;;;;;;17.00;8.68;;;;;;;22.53;49.32;101458.31;5050470;28;20115;-71
2021/04/03 09:16:12;;;;;;;15.77;6.32;;;;;;;22.64;49.18;101458.97;5048325;28;20044;-71
2021/04/03 09:18:39;;;;;;;10.68;5.38;;;;;;;22.76;49.21;101456.03;5050039;28;20133;-71
2021/04/03 09:21:07;;;;;;;33.97;23.35;;;;;;;22.91;49.41;101457.44;5050420;28;20400;-71
2021/04/03 09:23:41;;;;;;;14.68;8.20;;;;;;;23.11;48.73;101447.06;5038893;28;20038;-71
2021/04/03 09:26:08;;;;;;;23.00;16.35;;;;;;;22.96;48.51;101444.78;5030431;28;20539;-71
2021/04/03 09:28:40;;;;;;;14.95;6.50;;;;;;;22.90;48.98;101453.00;5030193;28;20038;-71
2021/04/03 09:31:10;;;;;;;14.07;6.15;;;;;;;22.94;48.71;101458.25;5045476;28;20167;-70
2021/04/03 09:33:47;;;;;;;15.98;6.85;;;;;;;22.98;48.83;101453.66;5049145;28;20037;-71
2021/04/03 09:36:16;;;;;;;10.88;4.45;;;;;;;23.13;48.51;101457.81;5048571;28;20052;-71
2021/04/03 09:38:45;;;;;;;13.95;4.95;;;;;;;23.25;48.24;101471.84;5043979;28;20037;-71
2021/04/03 09:41:26;;;;;;;11.23;5.90;;;;;;;23.35;47.73;101453.66;5049726;28;20041;-71
2021/04/03 09:43:54;;;;;;;14.48;6.53;;;;;;;23.26;47.44;101461.97;5042253;28;20168;-71
2021/04/03 09:46:23;;;;;;;16.27;7.30;;;;;;;23.22;48.15;101462.97;5031910;28;20590;-70
2021/04/03 09:48:50;;;;;;;13.00;5.80;;;;;;;23.20;48.15;101463.00;5037772;28;20103;-72
2021/04/03 09:51:17;;;;;;;14.48;5.60;;;;;;;23.35;48.47;101470.72;5031852;28;20370;-71
2021/04/03 09:53:47;;;;;;;14.07;5.85;;;;;;;23.45;48.26;101463.25;5031215;28;20047;-71
2021/04/03 09:56:14;;;;;;;14.70;6.10;;;;;;;23.57;48.04;101460.25;5033637;28;20396;-71
2021/04/03 09:58:41;;;;;;;16.60;9.38;;;;;;;23.35;47.69;101450.97;5033437;28;20057;-72
2021/04/03 10:01:08;;;;;;;17.25;7.50;;;;;;;23.16;48.33;101444.28;5046995;28;20033;-71
2021/04/03 10:03:36;;;;;;;15.95;8.70;;;;;;;23.16;48.21;101449.66;5047177;28;20039;-70
2021/04/03 10:06:03;;;;;;;13.35;6.75;;;;;;;23.04;48.68;101430.16;5060530;28;20030;-72
2021/04/03 10:08:30;;;;;;;22.77;14.05;;;;;;;22.94;48.70;101450.19;5047821;28;20037;-70
2021/04/03 10:10:57;;;;;;;15.45;6.55;;;;;;;22.86;48.60;101452.16;5045346;28;20045;-71
2021/04/03 10:13:25;;;;;;;10.98;5.20;;;;;;;22.87;48.93;101448.56;5045937;28;20030;-71
2021/04/03 10:15:52;;;;;;;18.98;7.88;;;;;;;23.13;49.11;101449.72;5033318;28;20045;-70
2021/04/03 10:18:19;;;;;;;8.98;5.43;;;;;;;23.10;48.09;101453.41;5033642;28;20033;-71
2021/04/03 10:20:47;;;;;;;11.43;5.88;;;;;;;23.04;47.97;101454.41;5033276;28;20557;-71
2021/04/03 10:23:14;;;;;;;25.33;9.13;;;;;;;22.93;48.18;101448.41;5037057;28;20381;-71
2021/04/03 10:25:41;;;;;;;10.93;5.80;;;;;;;22.99;48.08;101448.25;5038165;28;20042;-71
2021/04/03 10:28:08;;;;;;;11.90;6.70;;;;;;;22.88;48.62;101446.75;5033184;28;20160;-69
2021/04/03 10:30:35;;;;;;;20.90;8.30;;;;;;;22.74;48.81;101451.56;5047175;28;20056;-68
2021/04/03 10:33:03;;;;;;;15.35;10.75;;;;;;;22.87;49.07;101440.47;5045367;28;20043;-68
2021/04/03 10:35:30;;;;;;;12.45;7.85;;;;;;;22.86;48.88;101435.13;5030347;28;20045;-69
2021/04/03 10:37:58;;;;;;;11.35;6.07;;;;;;;22.85;48.85;101450.41;5046635;28;20029;-68
2021/04/03 10:40:25;;;;;;;10.55;6.85;;;;;;;22.83;48.32;101446.00;5041431;28;20392;-68
2021/04/03 10:42:52;;;;;;;11.68;5.82;;;;;;;22.66;47.91;101455.28;5051499;28;20592;-70
2021/04/03 10:45:19;;;;;;;9.30;5.40;;;;;;;22.75;48.40;101446.16;5051989;28;20112;-70
2021/04/03 10:47:46;;;;;;;10.98;6.57;;;;;;;22.94;48.33;101441.22;5052553;28;20029;-70
2021/04/03 10:50:15;;;;;;;12.73;5.53;;;;;;;22.93;47.50;101453.78;5052025;28;20051;-70
2021/04/03 10:52:41;;;;;;;16.55;8.10;;;;;;;22.56;47.61;101431.34;5052237;28;20049;-71
2021/04/03 10:55:12;;;;;;;16.00;7.28;;;;;;;22.43;48.33;101446.88;5052124;28;20124;-70
2021/04/03 10:57:39;;;;;;;12.70;5.30;;;;;;;22.30;48.21;101428.34;5051774;28;20063;-71
2021/04/03 11:00:07;;;;;;;10.73;4.20;;;;;;;22.18;48.06;101441.16;5047131;28;20045;-70
2021/04/03 11:02:34;;;;;;;9.18;4.63;;;;;;;22.21;47.72;101434.78;5038729;28;20504;-70
2021/04/03 11:05:02;;;;;;;15.48;4.97;;;;;;;22.18;48.21;101451.91;5048968;28;20756;-70
2021/04/03 11:07:29;;;;;;;9.63;4.38;;;;;;;22.30;48.46;101439.09;5051837;28;20045;-71
2021/04/03 11:09:56;;;;;;;12.50;4.13;;;;;;;22.59;47.82;101450.09;5041536;28;20049;-71
2021/04/03 11:12:24;;;;;;;12.13;4.38;;;;;;;22.78;47.29;101451.47;5045207;28;20091;-71
2021/04/03 11:14:51;;;;;;;12.50;5.20;;;;;;;22.83;47.13;101446.00;5049315;28;20033;-71
2021/04/03 11:17:18;;;;;;;8.65;4.85;;;;;;;22.98;47.56;101442.91;5052063;28;20045;-71
2021/04/03 11:19:44;;;;;;;10.27;4.38;;;;;;;23.15;47.16;101427.22;5043587;28;20124;-72
2021/04/03 11:22:11;;;;;;;12.00;6.03;;;;;;;23.26;46.14;101438.59;5034465;28;20041;-70
2021/04/03 11:24:38;;;;;;;12.18;4.15;;;;;;;23.14;46.52;101438.03;5051897;28;20029;-71
2021/04/03 11:27:06;;;;;;;11.35;5.43;;;;;;;23.09;46.55;101426.50;5052264;28;20040;-71